createdAt,value
2018-09-23T00:00:21.783Z,96086.00
2018-09-23T00:00:53.961Z,96089.00
2018-09-23T00:01:26.152Z,96091.00
2018-09-23T00:01:58.262Z,96089.00
2018-09-23T00:02:30.359Z,96091.00
2018-09-23T00:03:02.455Z,96086.00
2018-09-23T00:03:34.666Z,96085.00
2018-09-23T00:04:06.788Z,96090.00
2018-09-23T00:04:38.898Z,96084.00
2018-09-23T00:05:11.066Z,96084.00
2018-09-23T00:05:43.186Z,96087.00
2018-09-23T00:06:15.337Z,96087.00
2018-09-23T00:06:47.499Z,96083.00
2018-09-23T00:07:19.687Z,96081.00
2018-09-23T00:07:51.938Z,96083.00
2018-09-23T00:08:24.139Z,96075.00
2018-09-23T00:08:56.319Z,96077.00
2018-09-23T00:09:28.459Z,96077.00
2018-09-23T00:10:00.579Z,96080.00
2018-09-23T00:10:32.686Z,96077.00
2018-09-23T00:11:05.094Z,96082.00
2018-09-23T00:11:37.427Z,96077.00
2018-09-23T00:12:09.690Z,96082.00
2018-09-23T00:12:41.805Z,96076.00
2018-09-23T00:13:14.198Z,96082.00
2018-09-23T00:13:46.421Z,96079.00
2018-09-23T00:14:18.549Z,96083.00
2018-09-23T00:14:50.682Z,96082.00
2018-09-23T00:15:22.794Z,96087.00
2018-09-23T00:15:55.037Z,96086.00
2018-09-23T00:16:27.209Z,96080.00
2018-09-23T00:16:59.322Z,96084.00
2018-09-23T00:17:31.397Z,96083.00
2018-09-23T00:18:03.548Z,96088.00
2018-09-23T00:18:35.804Z,96087.00
2018-09-23T00:19:07.957Z,96086.00
2018-09-23T00:19:40.072Z,96085.00
2018-09-23T00:20:12.207Z,96085.00
2018-09-23T00:20:44.343Z,96084.00
2018-09-23T00:21:16.691Z,96087.00
2018-09-23T00:21:48.927Z,96087.00
2018-09-23T00:22:21.115Z,96087.00
2018-09-23T00:22:53.347Z,96090.00
2018-09-23T00:23:25.498Z,96093.00
2018-09-23T00:23:57.615Z,96091.00
2018-09-23T00:24:29.753Z,96088.00
2018-09-23T00:25:02.099Z,96091.00
2018-09-23T00:25:34.319Z,96091.00
2018-09-23T00:26:06.541Z,96083.00
2018-09-23T00:26:38.667Z,96088.00
2018-09-23T00:27:10.819Z,96086.00
2018-09-23T00:27:42.950Z,96087.00
2018-09-23T00:28:15.289Z,96086.00
2018-09-23T00:28:47.590Z,96085.00
2018-09-23T00:29:19.673Z,96084.00
2018-09-23T00:29:51.851Z,96085.00
2018-09-23T00:30:23.994Z,96087.00
2018-09-23T00:30:56.187Z,96083.00
2018-09-23T00:31:28.462Z,96084.00
2018-09-23T00:32:00.571Z,96089.00
2018-09-23T00:32:32.712Z,96086.00
2018-09-23T00:33:04.875Z,96082.00
2018-09-23T00:33:36.999Z,96083.00
2018-09-23T00:34:09.195Z,96083.00
2018-09-23T00:34:41.342Z,96086.00
2018-09-23T00:35:13.498Z,96076.00
2018-09-23T00:35:45.644Z,96078.00
2018-09-23T00:36:17.865Z,96074.00
2018-09-23T00:36:50.012Z,96077.00
2018-09-23T00:37:22.182Z,96074.00
2018-09-23T00:37:54.404Z,96073.00
2018-09-23T00:38:26.561Z,96075.00
2018-09-23T00:38:58.690Z,96074.00
2018-09-23T00:39:31.101Z,96078.00
2018-09-23T00:40:03.199Z,96074.00
2018-09-23T00:40:35.326Z,96076.00
2018-09-23T00:41:07.441Z,96074.00
2018-09-23T00:41:39.668Z,96076.00
2018-09-23T00:42:11.750Z,96076.00
2018-09-23T00:42:43.845Z,96066.00
2018-09-23T00:43:15.966Z,96069.00
2018-09-23T00:43:48.123Z,96068.00
2018-09-23T00:44:20.323Z,96070.00
2018-09-23T00:44:52.513Z,96067.00
2018-09-23T00:45:24.665Z,96071.00
2018-09-23T00:45:56.778Z,96067.00
2018-09-23T00:46:28.897Z,96067.00
2018-09-23T00:47:01.194Z,96071.00
2018-09-23T00:47:33.351Z,96067.00
2018-09-23T00:48:05.505Z,96066.00
2018-09-23T00:48:37.606Z,96067.00
2018-09-23T00:49:09.747Z,96066.00
2018-09-23T00:49:41.866Z,96067.00
2018-09-23T00:50:13.990Z,96065.00
2018-09-23T00:50:46.113Z,96065.00
2018-09-23T00:51:18.227Z,96067.00
2018-09-23T00:51:50.375Z,96060.00
2018-09-23T00:52:22.521Z,96057.00
2018-09-23T00:52:54.642Z,96058.00
2018-09-23T00:53:26.924Z,96058.00
2018-09-23T00:53:59.134Z,96055.00
2018-09-23T00:54:31.211Z,96055.00
2018-09-23T00:55:03.356Z,96051.00
2018-09-23T00:55:35.454Z,96050.00
2018-09-23T00:56:07.570Z,96053.00
2018-09-23T00:56:39.665Z,96056.00
2018-09-23T00:57:11.860Z,96046.00
2018-09-23T00:57:43.979Z,96050.00
2018-09-23T00:58:16.190Z,96047.00
2018-09-23T00:58:48.484Z,96054.00
2018-09-23T00:59:20.740Z,96051.00
2018-09-23T00:59:53.240Z,96049.00
2018-09-23T01:00:25.454Z,96051.00
2018-09-23T01:00:57.729Z,96046.00
2018-09-23T01:01:29.969Z,96050.00
2018-09-23T01:02:02.218Z,96045.00
2018-09-23T01:02:34.359Z,96052.00
2018-09-23T01:03:06.451Z,96050.00
2018-09-23T01:03:38.567Z,96046.00
2018-09-23T01:04:10.666Z,96045.00
2018-09-23T01:04:42.997Z,96052.00
2018-09-23T01:05:15.235Z,96049.00
2018-09-23T01:05:47.341Z,96049.00
2018-09-23T01:06:19.499Z,96046.00
2018-09-23T01:06:51.596Z,96048.00
2018-09-23T01:07:23.870Z,96048.00
2018-09-23T01:07:56.047Z,96050.00
2018-09-23T01:08:28.303Z,96057.00
2018-09-23T01:09:00.419Z,96047.00
2018-09-23T01:09:32.573Z,96052.00
2018-09-23T01:10:04.834Z,96050.00
2018-09-23T01:10:37.092Z,96053.00
2018-09-23T01:11:09.237Z,96051.00
2018-09-23T01:11:41.538Z,96046.00
2018-09-23T01:12:13.656Z,96049.00
2018-09-23T01:12:45.788Z,96048.00
2018-09-23T01:13:17.999Z,96050.00
2018-09-23T01:13:50.132Z,96049.00
2018-09-23T01:14:22.309Z,96047.00
2018-09-23T01:14:54.420Z,96046.00
2018-09-23T01:15:26.513Z,96045.00
2018-09-23T01:15:58.707Z,96045.00
2018-09-23T01:16:30.795Z,96046.00
2018-09-23T01:17:02.897Z,96051.00
2018-09-23T01:17:35.209Z,96046.00
2018-09-23T01:18:07.390Z,96046.00
2018-09-23T01:18:39.633Z,96044.00
2018-09-23T01:19:11.740Z,96047.00
2018-09-23T01:19:43.952Z,96042.00
2018-09-23T01:20:16.217Z,96039.00
2018-09-23T01:20:48.362Z,96041.00
2018-09-23T01:21:20.498Z,96041.00
2018-09-23T01:21:52.574Z,96034.00
2018-09-23T01:22:24.677Z,96039.00
2018-09-23T01:22:56.777Z,96032.00
2018-09-23T01:23:28.871Z,96038.00
2018-09-23T01:24:01.061Z,96033.00
2018-09-23T01:24:33.313Z,96038.00
2018-09-23T01:25:05.415Z,96039.00
2018-09-23T01:25:37.538Z,96039.00
2018-09-23T01:26:09.834Z,96042.00
2018-09-23T01:26:41.969Z,96045.00
2018-09-23T01:27:14.091Z,96043.00
2018-09-23T01:27:46.191Z,96041.00
2018-09-23T01:28:18.302Z,96043.00
2018-09-23T01:28:50.391Z,96043.00
2018-09-23T01:29:22.563Z,96046.00
2018-09-23T01:29:54.711Z,96045.00
2018-09-23T01:30:26.840Z,96042.00
2018-09-23T01:30:58.938Z,96046.00
2018-09-23T01:31:31.117Z,96047.00
2018-09-23T01:32:03.360Z,96046.00
2018-09-23T01:32:35.488Z,96047.00
2018-09-23T01:33:07.617Z,96046.00
2018-09-23T01:33:39.770Z,96052.00
2018-09-23T01:34:11.922Z,96046.00
2018-09-23T01:34:44.045Z,96047.00
2018-09-23T01:35:16.278Z,96043.00
2018-09-23T01:35:48.429Z,96050.00
2018-09-23T01:36:20.727Z,96049.00
2018-09-23T01:36:52.888Z,96042.00
2018-09-23T01:37:25.011Z,96041.00
2018-09-23T01:37:57.178Z,96042.00
2018-09-23T01:38:29.305Z,96039.00
2018-09-23T01:39:01.432Z,96038.00
2018-09-23T01:39:33.735Z,96036.00
2018-09-23T01:40:05.870Z,96031.00
2018-09-23T01:40:38.005Z,96035.00
2018-09-23T01:41:10.144Z,96032.00
2018-09-23T01:41:42.268Z,96032.00
2018-09-23T01:42:14.442Z,96032.00
2018-09-23T01:42:46.517Z,96029.00
2018-09-23T01:43:18.606Z,96026.00
2018-09-23T01:43:50.705Z,96029.00
2018-09-23T01:44:22.932Z,96031.00
2018-09-23T01:44:55.024Z,96024.00
2018-09-23T01:45:27.264Z,96028.00
2018-09-23T01:45:59.427Z,96032.00
2018-09-23T01:46:31.553Z,96028.00
2018-09-23T01:47:03.930Z,96029.00
2018-09-23T01:47:36.085Z,96027.00
2018-09-23T01:48:08.168Z,96028.00
2018-09-23T01:48:40.291Z,96028.00
2018-09-23T01:49:12.431Z,96026.00
2018-09-23T01:49:44.780Z,96030.00
2018-09-23T01:50:16.866Z,96024.00
2018-09-23T01:50:49.002Z,96022.00
2018-09-23T01:51:21.209Z,96018.00
2018-09-23T01:51:53.364Z,96020.00
2018-09-23T01:52:25.466Z,96016.00
2018-09-23T01:52:57.656Z,96015.00
2018-09-23T01:53:29.778Z,96012.00
2018-09-23T01:54:02.089Z,96011.00
2018-09-23T01:54:34.214Z,96011.00
2018-09-23T01:55:06.392Z,96012.00
2018-09-23T01:55:38.560Z,96013.00
2018-09-23T01:56:10.644Z,96016.00
2018-09-23T01:56:42.752Z,96014.00
2018-09-23T01:57:14.886Z,96015.00
2018-09-23T01:57:47.158Z,96013.00
2018-09-23T01:58:19.448Z,96017.00
2018-09-23T01:58:51.670Z,96017.00
2018-09-23T01:59:23.857Z,96014.00
2018-09-23T01:59:56.016Z,96018.00
2018-09-23T02:00:28.143Z,96019.00
2018-09-23T02:01:00.266Z,96018.00
2018-09-23T02:01:32.369Z,96015.00
2018-09-23T02:02:04.455Z,96011.00
2018-09-23T02:02:36.630Z,96014.00
2018-09-23T02:03:08.750Z,96016.00
2018-09-23T02:03:40.975Z,96020.00
2018-09-23T02:04:13.098Z,96020.00
2018-09-23T02:04:45.275Z,96019.00
2018-09-23T02:05:17.397Z,96021.00
2018-09-23T02:05:49.527Z,96024.00
2018-09-23T02:06:21.656Z,96014.00
2018-09-23T02:06:53.810Z,96017.00
2018-09-23T02:07:26.169Z,96015.00
2018-09-23T02:07:58.346Z,96015.00
2018-09-23T02:08:30.551Z,96015.00
2018-09-23T02:09:02.638Z,96014.00
2018-09-23T02:09:34.762Z,96015.00
2018-09-23T02:10:06.911Z,96019.00
2018-09-23T02:10:39.030Z,96017.00
2018-09-23T02:11:11.217Z,96017.00
2018-09-23T02:11:43.340Z,96018.00
2018-09-23T02:12:15.485Z,96020.00
2018-09-23T02:12:47.661Z,96012.00
2018-09-23T02:13:19.842Z,96010.00
2018-09-23T02:13:51.953Z,96018.00
2018-09-23T02:14:24.193Z,96014.00
2018-09-23T02:14:56.494Z,96017.00
2018-09-23T02:15:28.632Z,96015.00
2018-09-23T02:16:00.804Z,96009.00
2018-09-23T02:16:32.939Z,96011.00
2018-09-23T02:17:05.185Z,96009.00
2018-09-23T02:17:37.397Z,96016.00
2018-09-23T02:18:09.557Z,96013.00
2018-09-23T02:18:41.698Z,96011.00
2018-09-23T02:19:13.793Z,96017.00
2018-09-23T02:21:01.516Z,96005.00
2018-09-23T02:21:33.710Z,96002.00
2018-09-23T02:22:05.820Z,96002.00
2018-09-23T02:22:38.073Z,96001.00
2018-09-23T02:23:10.321Z,96004.00
2018-09-23T02:23:42.607Z,96001.00
2018-09-23T02:24:14.945Z,96003.00
2018-09-23T02:24:47.041Z,96002.00
2018-09-23T02:25:19.171Z,96003.00
2018-09-23T02:25:51.279Z,96002.00
2018-09-23T02:26:23.377Z,95997.00
2018-09-23T02:26:55.534Z,96001.00
2018-09-23T02:27:27.643Z,95996.00
2018-09-23T02:27:59.784Z,95994.00
2018-09-23T02:28:31.970Z,95999.00
2018-09-23T02:29:04.091Z,95994.00
2018-09-23T02:29:36.198Z,96000.00
2018-09-23T02:30:08.339Z,95997.00
2018-09-23T02:30:40.486Z,95996.00
2018-09-23T02:31:12.619Z,96001.00
2018-09-23T02:31:44.757Z,95996.00
2018-09-23T02:32:17.198Z,95993.00
2018-09-23T02:32:49.377Z,95996.00
2018-09-23T02:33:21.486Z,95994.00
2018-09-23T02:33:53.583Z,95995.00
2018-09-23T02:34:25.741Z,95988.00
2018-09-23T02:34:57.864Z,95993.00
2018-09-23T02:35:30.159Z,95990.00
2018-09-23T02:36:02.642Z,95988.00
2018-09-23T02:36:34.842Z,95986.00
2018-09-23T02:37:07.134Z,95988.00
2018-09-23T02:37:39.270Z,95983.00
2018-09-23T02:38:11.365Z,95986.00
2018-09-23T02:38:43.650Z,95983.00
2018-09-23T02:39:15.741Z,95988.00
2018-09-23T02:39:47.827Z,95982.00
2018-09-23T02:40:19.930Z,95978.00
2018-09-23T02:40:52.292Z,95983.00
2018-09-23T02:41:24.433Z,95987.00
2018-09-23T02:41:56.541Z,95982.00
2018-09-23T02:42:28.646Z,95980.00
2018-09-23T02:43:00.798Z,95978.00
2018-09-23T02:43:32.871Z,95973.00
2018-09-23T02:44:05.000Z,95977.00
2018-09-23T02:44:37.122Z,95977.00
2018-09-23T02:45:09.520Z,95974.00
2018-09-23T02:45:41.782Z,95969.00
2018-09-23T02:46:13.912Z,95974.00
2018-09-23T02:46:46.026Z,95970.00
2018-09-23T02:47:18.263Z,95969.00
2018-09-23T02:47:50.405Z,95968.00
2018-09-23T02:48:22.565Z,95965.00
2018-09-23T02:48:54.677Z,95964.00
2018-09-23T02:49:26.788Z,95961.00
2018-09-23T02:49:59.053Z,95968.00
2018-09-23T02:50:31.186Z,95959.00
2018-09-23T02:51:03.494Z,95956.00
2018-09-23T02:51:35.626Z,95952.00
2018-09-23T02:52:07.819Z,95952.00
2018-09-23T02:52:39.969Z,95948.00
2018-09-23T02:53:12.117Z,95948.00
2018-09-23T02:53:44.232Z,95946.00
2018-09-23T02:54:16.332Z,95948.00
2018-09-23T02:54:48.676Z,95943.00
2018-09-23T02:55:20.850Z,95943.00
2018-09-23T02:55:53.113Z,95942.00
2018-09-23T02:56:25.250Z,95941.00
2018-09-23T02:56:57.649Z,95938.00
2018-09-23T02:57:29.830Z,95940.00
2018-09-23T02:58:02.021Z,95936.00
2018-09-23T02:58:34.214Z,95933.00
2018-09-23T02:59:06.317Z,95933.00
2018-09-23T02:59:38.418Z,95936.00
2018-09-23T03:00:10.550Z,95935.00
2018-09-23T03:00:42.643Z,95935.00
2018-09-23T03:01:14.789Z,95935.00
2018-09-23T03:01:46.997Z,95932.00
2018-09-23T03:02:19.105Z,95930.00
2018-09-23T03:02:51.222Z,95933.00
2018-09-23T03:03:23.343Z,95933.00
2018-09-23T03:03:55.421Z,95933.00
2018-09-23T03:04:27.519Z,95934.00
2018-09-23T03:04:59.683Z,95932.00
2018-09-23T03:05:31.826Z,95933.00
2018-09-23T03:06:03.929Z,95932.00
2018-09-23T03:06:35.998Z,95934.00
2018-09-23T03:07:08.384Z,95935.00
2018-09-23T03:07:40.526Z,95937.00
2018-09-23T03:08:12.698Z,95938.00
2018-09-23T03:08:44.780Z,95933.00
2018-09-23T03:09:16.880Z,95932.00
2018-09-23T03:09:48.985Z,95933.00
2018-09-23T03:10:21.110Z,95935.00
2018-09-23T03:10:53.246Z,95930.00
2018-09-23T03:11:25.365Z,95931.00
2018-09-23T03:11:57.524Z,95932.00
2018-09-23T03:12:29.632Z,95933.00
2018-09-23T03:13:01.782Z,95927.00
2018-09-23T03:13:34.123Z,95931.00
2018-09-23T03:14:06.232Z,95932.00
2018-09-23T03:14:38.362Z,95932.00
2018-09-23T03:15:10.718Z,95933.00
2018-09-23T03:15:42.830Z,95930.00
2018-09-23T03:16:15.057Z,95930.00
2018-09-23T03:16:47.210Z,95929.00
2018-09-23T03:17:19.319Z,95929.00
2018-09-23T03:17:51.485Z,95933.00
2018-09-23T03:18:23.589Z,95924.00
2018-09-23T03:18:55.879Z,95928.00
2018-09-23T03:19:28.017Z,95927.00
2018-09-23T03:20:00.112Z,95926.00
2018-09-23T03:20:32.185Z,95923.00
2018-09-23T03:21:04.302Z,95925.00
2018-09-23T03:21:36.469Z,95924.00
2018-09-23T03:22:08.571Z,95922.00
2018-09-23T03:22:40.846Z,95920.00
2018-09-23T03:23:12.971Z,95920.00
2018-09-23T03:23:45.160Z,95916.00
2018-09-23T03:24:17.257Z,95919.00
2018-09-23T03:24:49.401Z,95921.00
2018-09-23T03:25:21.551Z,95916.00
2018-09-23T03:25:53.739Z,95916.00
2018-09-23T03:26:25.966Z,95915.00
2018-09-23T03:26:58.122Z,95912.00
2018-09-23T03:27:30.274Z,95911.00
2018-09-23T03:28:02.388Z,95907.00
2018-09-23T03:28:34.485Z,95901.00
2018-09-23T03:29:06.630Z,95901.00
2018-09-23T03:29:38.767Z,95906.00
2018-09-23T03:30:11.022Z,95906.00
2018-09-23T03:30:43.165Z,95900.00
2018-09-23T03:31:15.278Z,95901.00
2018-09-23T03:31:47.382Z,95895.00
2018-09-23T03:32:19.637Z,95902.00
2018-09-23T03:32:51.986Z,95902.00
2018-09-23T03:33:24.147Z,95899.00
2018-09-23T03:33:56.242Z,95902.00
2018-09-23T03:34:28.328Z,95897.00
2018-09-23T03:35:00.445Z,95896.00
2018-09-23T03:35:32.598Z,95897.00
2018-09-23T03:36:04.684Z,95896.00
2018-09-23T03:36:36.917Z,95898.00
2018-09-23T03:37:08.999Z,95898.00
2018-09-23T03:37:41.097Z,95893.00
2018-09-23T03:38:13.318Z,95889.00
2018-09-23T03:38:45.709Z,95886.00
2018-09-23T03:39:17.814Z,95890.00
2018-09-23T03:39:49.938Z,95885.00
2018-09-23T03:40:22.139Z,95887.00
2018-09-23T03:40:54.294Z,95883.00
2018-09-23T03:41:26.479Z,95886.00
2018-09-23T03:41:58.716Z,95884.00
2018-09-23T03:42:30.833Z,95877.00
2018-09-23T03:43:02.967Z,95884.00
2018-09-23T03:48:26.120Z,95874.00
2018-09-23T03:48:58.231Z,95875.00
2018-09-23T03:49:30.497Z,95872.00
2018-09-23T03:50:02.693Z,95874.00
2018-09-23T03:50:34.784Z,95875.00
2018-09-23T03:51:06.949Z,95869.00
2018-09-23T03:51:39.061Z,95873.00
2018-09-23T03:52:11.161Z,95871.00
2018-09-23T03:52:43.268Z,95868.00
2018-09-23T03:53:15.481Z,95865.00
2018-09-23T03:53:47.574Z,95865.00
2018-09-23T03:54:19.700Z,95866.00
2018-09-23T03:54:51.906Z,95867.00
2018-09-23T03:55:24.023Z,95866.00
2018-09-23T03:55:56.243Z,95863.00
2018-09-23T03:56:28.358Z,95863.00
2018-09-23T03:57:00.519Z,95865.00
2018-09-23T03:57:32.650Z,95856.00
2018-09-23T03:58:04.780Z,95863.00
2018-09-23T03:58:36.949Z,95859.00
2018-09-23T03:59:09.102Z,95859.00
2018-09-23T03:59:41.189Z,95854.00
2018-09-23T04:00:13.311Z,95852.00
2018-09-23T04:00:45.430Z,95856.00
2018-09-23T04:01:17.558Z,95851.00
2018-09-23T04:01:49.671Z,95858.00
2018-09-23T04:02:21.757Z,95861.00
2018-09-23T04:02:53.986Z,95860.00
2018-09-23T04:03:26.122Z,95856.00
2018-09-23T04:03:58.334Z,95851.00
2018-09-23T04:04:30.466Z,95850.00
2018-09-23T04:05:02.718Z,95847.00
2018-09-23T04:05:34.934Z,95844.00
2018-09-23T04:06:07.049Z,95837.00
2018-09-23T04:06:39.210Z,95839.00
2018-09-23T04:07:11.397Z,95843.00
2018-09-23T04:07:43.516Z,95842.00
2018-09-23T04:08:15.622Z,95847.00
2018-09-23T04:08:47.938Z,95846.00
2018-09-23T04:09:20.222Z,95845.00
2018-09-23T04:09:52.307Z,95845.00
2018-09-23T04:10:24.449Z,95849.00
2018-09-23T04:10:56.673Z,95848.00
2018-09-23T04:11:29.109Z,95852.00
2018-09-23T04:12:01.399Z,95841.00
2018-09-23T04:12:33.478Z,95841.00
2018-09-23T04:13:05.620Z,95839.00
2018-09-23T04:13:38.166Z,95835.00
2018-09-23T04:14:10.323Z,95834.00
2018-09-23T04:14:42.605Z,95832.00
2018-09-23T04:15:14.845Z,95830.00
2018-09-23T04:15:47.025Z,95827.00
2018-09-23T04:16:19.146Z,95834.00
2018-09-23T04:16:51.237Z,95838.00
2018-09-23T04:17:23.518Z,95844.00
2018-09-23T04:17:55.709Z,95841.00
2018-09-23T04:18:27.934Z,95845.00
2018-09-23T04:19:00.137Z,95840.00
2018-09-23T04:19:32.374Z,95838.00
2018-09-23T04:20:04.446Z,95837.00
2018-09-23T04:20:36.715Z,95834.00
2018-09-23T04:21:08.845Z,95832.00
2018-09-23T04:21:41.159Z,95833.00
2018-09-23T04:22:13.245Z,95833.00
2018-09-23T04:22:45.638Z,95836.00
2018-09-23T04:23:17.787Z,95830.00
2018-09-23T04:23:49.981Z,95832.00
2018-09-23T04:24:22.063Z,95832.00
2018-09-23T04:24:54.321Z,95828.00
2018-09-23T04:25:26.430Z,95828.00
2018-09-23T04:25:58.531Z,95825.00
2018-09-23T04:26:30.609Z,95827.00
2018-09-23T04:27:02.898Z,95826.00
2018-09-23T04:27:35.176Z,95824.00
2018-09-23T04:28:07.294Z,95825.00
2018-09-23T04:28:39.412Z,95830.00
2018-09-23T04:29:11.537Z,95825.00
2018-09-23T04:29:43.642Z,95825.00
2018-09-23T04:30:15.772Z,95827.00
2018-09-23T04:30:47.896Z,95825.00
2018-09-23T04:31:20.051Z,95828.00
2018-09-23T04:31:52.180Z,95830.00
2018-09-23T04:32:24.263Z,95825.00
2018-09-23T04:32:56.412Z,95824.00
2018-09-23T04:33:28.552Z,95819.00
2018-09-23T04:34:00.801Z,95813.00
2018-09-23T04:34:33.095Z,95814.00
2018-09-23T04:35:05.201Z,95817.00
2018-09-23T04:35:37.291Z,95818.00
2018-09-23T04:36:09.443Z,95811.00
2018-09-23T04:36:41.543Z,95807.00
2018-09-23T04:37:13.648Z,95801.00
2018-09-23T04:37:45.804Z,95806.00
2018-09-23T04:38:17.885Z,95809.00
2018-09-23T04:38:50.086Z,95809.00
2018-09-23T04:39:22.173Z,95805.00
2018-09-23T04:39:54.254Z,95803.00
2018-09-23T04:40:26.671Z,95805.00
2018-09-23T04:40:58.819Z,95797.00
2018-09-23T04:41:30.978Z,95798.00
2018-09-23T04:42:03.095Z,95803.00
2018-09-23T04:42:35.212Z,95811.00
2018-09-23T04:43:07.547Z,95809.00
2018-09-23T04:43:39.674Z,95813.00
2018-09-23T04:44:11.772Z,95813.00
2018-09-23T04:44:44.001Z,95805.00
2018-09-23T04:45:16.177Z,95803.00
2018-09-23T04:45:48.531Z,95804.00
2018-09-23T04:46:20.691Z,95803.00
2018-09-23T04:46:52.876Z,95800.00
2018-09-23T04:47:25.161Z,95792.00
2018-09-23T04:47:57.314Z,95797.00
2018-09-23T04:48:29.576Z,95800.00
2018-09-23T04:49:01.734Z,95792.00
2018-09-23T04:49:33.826Z,95787.00
2018-09-23T04:50:05.914Z,95791.00
2018-09-23T04:50:38.052Z,95791.00
2018-09-23T04:51:10.317Z,95788.00
2018-09-23T04:51:42.423Z,95791.00
2018-09-23T04:52:14.586Z,95792.00
2018-09-23T04:52:46.711Z,95793.00
2018-09-23T04:53:18.968Z,95800.00
2018-09-23T04:53:51.317Z,95797.00
2018-09-23T04:54:23.482Z,95795.00
2018-09-23T04:54:55.819Z,95792.00
2018-09-23T04:55:28.088Z,95800.00
2018-09-23T04:56:00.314Z,95800.00
2018-09-23T04:56:32.609Z,95798.00
2018-09-23T04:57:04.735Z,95799.00
2018-09-23T04:57:37.151Z,95795.00
2018-09-23T04:58:09.285Z,95798.00
2018-09-23T04:58:41.522Z,95791.00
2018-09-23T04:59:13.679Z,95791.00
2018-09-23T04:59:45.798Z,95788.00
2018-09-23T05:00:18.054Z,95793.00
2018-09-23T05:00:50.198Z,95794.00
2018-09-23T05:01:22.365Z,95788.00
2018-09-23T05:01:54.621Z,95791.00
2018-09-23T05:02:26.840Z,95793.00
2018-09-23T05:02:58.973Z,95791.00
2018-09-23T05:03:31.254Z,95791.00
2018-09-23T05:04:03.354Z,95793.00
2018-09-23T05:04:35.473Z,95790.00
2018-09-23T05:05:07.598Z,95790.00
2018-09-23T05:05:39.833Z,95795.00
2018-09-23T05:06:11.947Z,95793.00
2018-09-23T05:06:44.126Z,95788.00
2018-09-23T05:07:16.399Z,95782.00
2018-09-23T05:07:48.658Z,95780.00
2018-09-23T05:08:20.797Z,95778.00
2018-09-23T05:08:52.905Z,95789.00
2018-09-23T05:09:25.191Z,95782.00
2018-09-23T05:09:57.381Z,95772.00
2018-09-23T05:10:29.630Z,95777.00
2018-09-23T05:11:01.712Z,95776.00
2018-09-23T05:11:33.794Z,95775.00
2018-09-23T05:12:05.967Z,95774.00
2018-09-23T05:12:38.244Z,95772.00
2018-09-23T05:13:10.339Z,95768.00
2018-09-23T05:13:42.451Z,95772.00
2018-09-23T05:14:14.775Z,95768.00
2018-09-23T05:14:46.905Z,95766.00
2018-09-23T05:15:19.262Z,95766.00
2018-09-23T05:15:51.565Z,95761.00
2018-09-23T05:16:23.703Z,95764.00
2018-09-23T05:16:55.834Z,95763.00
2018-09-23T05:17:28.087Z,95764.00
2018-09-23T05:18:00.228Z,95762.00
2018-09-23T05:18:32.318Z,95761.00
2018-09-23T05:19:04.430Z,95760.00
2018-09-23T05:19:36.572Z,95759.00
2018-09-23T05:20:08.729Z,95763.00
2018-09-23T05:20:40.980Z,95756.00
2018-09-23T05:21:13.089Z,95760.00
2018-09-23T05:21:45.345Z,95758.00
2018-09-23T05:22:17.482Z,95757.00
2018-09-23T05:22:49.581Z,95755.00
2018-09-23T05:23:21.814Z,95751.00
2018-09-23T05:23:53.961Z,95753.00
2018-09-23T05:24:26.080Z,95755.00
2018-09-23T05:24:58.164Z,95755.00
2018-09-23T05:25:30.319Z,95754.00
2018-09-23T05:26:02.427Z,95753.00
2018-09-23T05:26:34.557Z,95752.00
2018-09-23T05:27:06.851Z,95755.00
2018-09-23T05:27:38.985Z,95758.00
2018-09-23T05:28:11.074Z,95758.00
2018-09-23T05:28:43.178Z,95755.00
2018-09-23T05:29:15.431Z,95755.00
2018-09-23T05:29:47.589Z,95754.00
2018-09-23T05:30:19.683Z,95754.00
2018-09-23T05:30:51.896Z,95755.00
2018-09-23T05:31:23.952Z,95749.00
2018-09-23T05:31:56.285Z,95752.00
2018-09-23T05:32:28.388Z,95754.00
2018-09-23T05:33:00.511Z,95748.00
2018-09-23T05:33:32.773Z,95751.00
2018-09-23T05:34:04.869Z,95751.00
2018-09-23T05:34:36.991Z,95756.00
2018-09-23T05:35:09.229Z,95754.00
2018-09-23T05:35:41.449Z,95755.00
2018-09-23T05:36:13.549Z,95749.00
2018-09-23T05:36:45.655Z,95751.00
2018-09-23T05:37:17.766Z,95750.00
2018-09-23T05:37:49.875Z,95749.00
2018-09-23T05:38:22.054Z,95750.00
2018-09-23T05:38:54.348Z,95750.00
2018-09-23T05:39:26.698Z,95748.00
2018-09-23T05:39:58.834Z,95749.00
2018-09-23T05:40:30.974Z,95741.00
2018-09-23T05:41:03.087Z,95745.00
2018-09-23T05:41:35.222Z,95742.00
2018-09-23T05:42:07.369Z,95739.00
2018-09-23T05:42:39.507Z,95739.00
2018-09-23T05:43:11.638Z,95742.00
2018-09-23T05:43:43.749Z,95737.00
2018-09-23T05:44:15.897Z,95735.00
2018-09-23T05:44:48.054Z,95735.00
2018-09-23T05:45:20.194Z,95732.00
2018-09-23T05:45:52.580Z,95737.00
2018-09-23T05:46:24.703Z,95732.00
2018-09-23T05:46:56.807Z,95730.00
2018-09-23T05:47:28.925Z,95734.00
2018-09-23T05:48:01.383Z,95738.00
2018-09-23T05:48:33.536Z,95732.00
2018-09-23T05:49:05.645Z,95728.00
2018-09-23T05:49:37.828Z,95731.00
2018-09-23T05:50:10.005Z,95732.00
2018-09-23T05:50:42.137Z,95736.00
2018-09-23T05:51:14.308Z,95736.00
2018-09-23T05:51:46.399Z,95728.00
2018-09-23T05:52:18.557Z,95731.00
2018-09-23T05:52:50.755Z,95728.00
2018-09-23T05:53:23.008Z,95728.00
2018-09-23T05:53:55.089Z,95724.00
2018-09-23T05:54:27.341Z,95723.00
2018-09-23T05:54:59.442Z,95721.00
2018-09-23T05:55:31.563Z,95723.00
2018-09-23T05:56:03.712Z,95716.00
2018-09-23T05:56:35.794Z,95723.00
2018-09-23T05:57:07.909Z,95718.00
2018-09-23T05:57:40.109Z,95719.00
2018-09-23T05:58:12.369Z,95714.00
2018-09-23T05:58:44.451Z,95718.00
2018-09-23T05:59:16.602Z,95716.00
2018-09-23T05:59:48.725Z,95713.00
2018-09-23T06:00:20.900Z,95717.00
2018-09-23T06:00:53.107Z,95719.00
2018-09-23T06:01:25.239Z,95719.00
2018-09-23T06:01:57.506Z,95716.00
2018-09-23T06:02:29.831Z,95719.00
2018-09-23T06:03:02.444Z,95721.00
2018-09-23T06:03:34.505Z,95715.00
2018-09-23T06:04:06.629Z,95717.00
2018-09-23T06:04:38.861Z,95716.00
2018-09-23T06:05:11.150Z,95716.00
2018-09-23T06:05:43.407Z,95710.00
2018-09-23T06:06:15.513Z,95709.00
2018-09-23T06:06:47.651Z,95718.00
2018-09-23T06:07:19.785Z,95718.00
2018-09-23T06:07:51.960Z,95715.00
2018-09-23T06:08:24.207Z,95714.00
2018-09-23T06:08:56.468Z,95711.00
2018-09-23T06:09:28.466Z,95708.00
2018-09-23T06:10:00.575Z,95708.00
2018-09-23T06:10:32.878Z,95706.00
2018-09-23T06:11:05.039Z,95715.00
2018-09-23T06:11:37.132Z,95710.00
2018-09-23T06:12:09.272Z,95709.00
2018-09-23T06:12:41.392Z,95707.00
2018-09-23T06:13:13.497Z,95706.00
2018-09-23T06:13:45.622Z,95702.00
2018-09-23T06:14:17.737Z,95702.00
2018-09-23T06:14:50.092Z,95701.00
2018-09-23T06:15:22.453Z,95702.00
2018-09-23T06:15:54.574Z,95696.00
2018-09-23T06:16:26.714Z,95693.00
2018-09-23T06:16:58.831Z,95697.00
2018-09-23T06:17:30.983Z,95694.00
2018-09-23T06:18:03.221Z,95693.00
2018-09-23T06:18:35.393Z,95689.00
2018-09-23T06:19:07.516Z,95689.00
2018-09-23T06:19:39.602Z,95690.00
2018-09-23T06:20:11.724Z,95689.00
2018-09-23T06:20:43.869Z,95684.00
2018-09-23T06:21:16.013Z,95686.00
2018-09-23T06:21:48.078Z,95685.00
2018-09-23T06:22:20.202Z,95683.00
2018-09-23T06:22:52.342Z,95686.00
2018-09-23T06:23:24.485Z,95689.00
2018-09-23T06:23:56.576Z,95685.00